createdAt,value
2019-04-07T00:01:13.273Z,100011.96
2019-04-07T00:03:42.795Z,100014.92
2019-04-07T00:06:12.332Z,100017.09
2019-04-07T00:08:42.204Z,100000.47
2019-04-07T00:11:11.781Z,100022.22
2019-04-07T00:13:41.454Z,100020.53
2019-04-07T00:16:10.959Z,100017.56
2019-04-07T00:18:40.981Z,100016.27
2019-04-07T00:21:11.282Z,100014.14
2019-04-07T00:23:40.870Z,100009.86
2019-04-07T00:26:10.389Z,100012.44
2019-04-07T00:28:39.910Z,100012.83
2019-04-07T00:31:09.445Z,100014.11
2019-04-07T00:33:38.967Z,100005.59
2019-04-07T00:36:08.498Z,100007.30
2019-04-07T00:38:38.437Z,100011.56
2019-04-07T00:41:08.018Z,100011.57
2019-04-07T00:43:37.558Z,100017.97
2019-04-07T00:46:07.664Z,100018.81
2019-04-07T00:48:37.203Z,100021.36
2019-04-07T00:51:06.726Z,100017.48
2019-04-07T00:53:36.643Z,100023.90
2019-04-07T00:56:06.141Z,100023.47
2019-04-07T00:58:35.649Z,100020.47
2019-04-07T01:01:06.613Z,100017.94
2019-04-07T01:03:36.139Z,100015.38
2019-04-07T01:06:05.691Z,100022.23
2019-04-07T01:08:35.210Z,100029.06
2019-04-07T01:11:04.804Z,100017.56
2019-04-07T01:13:34.330Z,100016.25
2019-04-07T01:16:03.961Z,100009.42
2019-04-07T01:18:35.467Z,100016.69
2019-04-07T01:21:05.264Z,100017.98
2019-04-07T01:23:34.838Z,100014.98
2019-04-07T01:26:04.900Z,100016.27
2019-04-07T01:28:34.427Z,100016.70
2019-04-07T01:31:04.371Z,100014.13
2019-04-07T01:33:33.981Z,100017.98
2019-04-07T01:36:03.611Z,100020.55
2019-04-07T01:38:33.281Z,100018.83
2019-04-07T01:41:28.012Z,100013.27
2019-04-07T01:44:10.146Z,100019.67
2019-04-07T01:46:46.108Z,100017.97
2019-04-07T01:49:26.085Z,100016.66
2019-04-07T01:52:02.156Z,100022.64
2019-04-07T01:54:56.898Z,100018.78
2019-04-07T01:57:36.910Z,100023.06
2019-04-07T02:00:40.411Z,100023.05
2019-04-07T02:03:41.044Z,100016.68
2019-04-07T02:06:16.898Z,100020.07
2019-04-07T02:09:09.455Z,100023.05
2019-04-07T02:12:01.855Z,100018.81
2019-04-07T02:14:48.988Z,100016.23
2019-04-07T02:17:33.047Z,100020.47
2019-04-07T02:20:25.754Z,100018.33
2019-04-07T02:23:06.460Z,100017.86
2019-04-07T02:25:58.224Z,100020.84
2019-04-07T02:28:45.426Z,100014.86
2019-04-07T02:31:33.981Z,100018.70
2019-04-07T02:34:11.937Z,100016.16
2019-04-07T02:37:04.598Z,100015.70
2019-04-07T02:39:40.693Z,100015.70
2019-04-07T02:42:27.540Z,100017.36
2019-04-07T02:45:15.265Z,100015.17
2019-04-07T02:47:57.946Z,100017.40
2019-04-07T02:50:35.542Z,100020.77
2019-04-07T02:53:30.845Z,100027.22
2019-04-07T02:56:10.088Z,100025.10
2019-04-07T02:59:04.998Z,100023.84
2019-04-07T03:02:10.156Z,100029.36
2019-04-07T03:04:57.358Z,100030.66
2019-04-07T03:07:43.087Z,100031.49
2019-04-07T03:10:21.555Z,100033.20
2019-04-07T03:13:09.290Z,100028.52
2019-04-07T03:15:53.302Z,100035.77
2019-04-07T03:18:44.691Z,100025.03
2019-04-07T03:21:36.382Z,100036.98
2019-04-07T03:24:30.735Z,100038.23
2019-04-07T03:27:11.512Z,100039.10
2019-04-07T03:30:03.847Z,100033.16
2019-04-07T03:32:54.438Z,100033.58
2019-04-07T03:35:32.352Z,100037.43
2019-04-07T03:38:35.320Z,100031.04
2019-04-07T03:41:12.232Z,100034.44
2019-04-07T03:43:50.928Z,100036.98
2019-04-07T03:46:26.971Z,100031.43
2019-04-07T03:49:17.653Z,100036.11
2019-04-07T03:51:53.378Z,100032.30
2019-04-07T03:54:42.028Z,100034.00
2019-04-07T03:57:31.179Z,100035.72
2019-04-07T04:00:19.730Z,100031.03
2019-04-07T04:03:17.242Z,100036.09
2019-04-07T04:06:09.172Z,100037.80
2019-04-07T04:08:58.802Z,100034.28
2019-04-07T04:11:41.109Z,100035.14
2019-04-07T04:14:25.216Z,100039.84
2019-04-07T04:16:54.920Z,100039.77
2019-04-07T04:19:24.864Z,100045.69
2019-04-07T04:21:54.467Z,100047.80
2019-04-07T04:24:23.995Z,100044.83
2019-04-07T04:26:53.845Z,100049.94
2019-04-07T04:29:24.602Z,100052.53
2019-04-07T04:31:54.620Z,100058.44
2019-04-07T04:34:25.125Z,100056.78
2019-04-07T04:36:54.789Z,100063.19
2019-04-07T04:39:24.959Z,100065.28
2019-04-07T04:41:55.600Z,100061.06
2019-04-07T04:44:25.710Z,100065.33
2019-04-07T04:46:56.179Z,100039.66
2019-04-07T04:49:26.806Z,100070.06
2019-04-07T04:51:57.134Z,100075.63
2019-04-07T04:54:27.745Z,100071.39
2019-04-07T04:56:57.300Z,100076.95
2019-04-07T04:59:27.897Z,100074.41
2019-04-07T05:01:58.887Z,100074.83
2019-04-07T05:04:29.311Z,100081.25
2019-04-07T05:06:59.369Z,100079.54
2019-04-07T05:09:40.035Z,100089.73
2019-04-07T05:12:00.300Z,100088.06
2019-04-07T05:14:29.792Z,100099.98
2019-04-07T05:16:59.515Z,100091.92
2019-04-07T05:19:29.033Z,100099.98
2019-04-07T05:21:59.146Z,100088.89
2019-04-07T05:24:29.265Z,100098.67
2019-04-07T05:26:58.781Z,100102.97
2019-04-07T05:29:29.062Z,100098.71
2019-04-07T05:31:59.131Z,100099.19
2019-04-07T05:34:28.728Z,100105.17
2019-04-07T05:36:58.778Z,100106.47
2019-04-07T05:39:28.359Z,100110.38
2019-04-07T05:41:58.054Z,100116.81
2019-04-07T05:44:27.841Z,100112.59
2019-04-07T05:46:58.143Z,100113.52
2019-04-07T05:49:28.180Z,100118.69
2019-04-07T05:51:59.564Z,100106.73
2019-04-07T05:54:29.525Z,100128.09
2019-04-07T05:57:01.378Z,100118.70
2019-04-07T05:59:30.404Z,100132.36
2019-04-07T06:02:02.521Z,100135.34
2019-04-07T06:04:31.515Z,100139.17
2019-04-07T06:07:02.240Z,100140.05
2019-04-07T06:09:33.828Z,100141.77
2019-04-07T06:12:08.512Z,100146.03
2019-04-07T06:14:34.347Z,100141.36
2019-04-07T06:17:04.863Z,100143.48
2019-04-07T06:19:37.542Z,100136.25
2019-04-07T06:22:07.638Z,100139.21
2019-04-07T06:24:36.939Z,100137.09
2019-04-07T06:27:06.474Z,100134.12
2019-04-07T06:29:36.598Z,100136.61
2019-04-07T06:32:09.146Z,100134.91
2019-04-07T06:34:39.782Z,100141.34
2019-04-07T06:37:08.567Z,100132.37
2019-04-07T06:39:39.006Z,100142.65
2019-04-07T06:42:08.599Z,100134.53
2019-04-07T06:44:38.531Z,100132.40
2019-04-07T06:47:30.884Z,100135.80
2019-04-07T06:50:43.878Z,100131.09
2019-04-07T06:53:20.715Z,100127.69
2019-04-07T06:56:15.400Z,100129.81
2019-04-07T06:59:03.550Z,100129.84
2019-04-07T07:01:48.060Z,100133.67
2019-04-07T07:04:41.561Z,100131.96
2019-04-07T07:07:23.583Z,100136.22
2019-04-07T07:10:30.273Z,100133.69
2019-04-07T07:13:29.231Z,100136.64
2019-04-07T07:16:32.306Z,100137.53
2019-04-07T07:19:31.644Z,100139.25
2019-04-07T07:22:16.003Z,100144.80
2019-04-07T07:24:47.184Z,100150.33
2019-04-07T07:27:17.639Z,100146.02
2019-04-07T07:29:47.703Z,100146.02
2019-04-07T07:32:18.614Z,100150.32
2019-04-07T07:34:48.172Z,100148.21
2019-04-07T07:37:18.344Z,100156.33
2019-04-07T07:39:48.704Z,100152.48
2019-04-07T07:42:22.112Z,100144.74
2019-04-07T07:44:50.353Z,100152.44
2019-04-07T07:47:22.595Z,100148.60
2019-04-07T07:49:52.471Z,100119.98
2019-04-07T07:52:22.173Z,100140.88
2019-04-07T07:54:51.916Z,100143.83
2019-04-07T07:57:23.737Z,100140.34
2019-04-07T07:59:53.704Z,100151.81
2019-04-07T08:02:23.775Z,100153.16
2019-04-07T08:04:57.328Z,100159.13
2019-04-07T08:07:24.747Z,100161.61
2019-04-07T08:09:56.720Z,100164.16
2019-04-07T08:12:28.089Z,100165.47
2019-04-07T08:14:58.881Z,100168.89
2019-04-07T08:17:31.648Z,100170.16
2019-04-07T08:20:01.054Z,100167.52
2019-04-07T08:22:38.873Z,100176.45
2019-04-07T08:25:02.408Z,100177.17
2019-04-07T08:27:32.861Z,100178.85
2019-04-07T08:30:02.776Z,100180.41
2019-04-07T08:32:33.385Z,100185.04
2019-04-07T08:35:05.566Z,100185.09
2019-04-07T08:37:35.271Z,100190.18
2019-04-07T08:40:07.693Z,100182.89
2019-04-07T08:42:38.065Z,100187.00
2019-04-07T08:45:08.237Z,100184.48
2019-04-07T08:47:38.106Z,100185.76
2019-04-07T08:50:08.471Z,100184.84
2019-04-07T08:52:40.769Z,100186.08
2019-04-07T08:55:09.317Z,100187.70
2019-04-07T08:57:38.857Z,100182.33
2019-04-07T09:00:15.612Z,100181.88
2019-04-07T09:02:42.726Z,100182.92
2019-04-07T09:05:12.977Z,100175.09
2019-04-07T09:07:42.515Z,100174.23
2019-04-07T09:10:18.337Z,100174.91
2019-04-07T09:12:46.879Z,100179.50
2019-04-07T09:15:23.479Z,100174.05
2019-04-07T09:18:06.162Z,100181.09
2019-04-07T09:20:48.379Z,100178.45
2019-04-07T09:23:28.328Z,100182.76
2019-04-07T09:26:26.301Z,100174.42
2019-04-07T09:29:33.056Z,100182.89
2019-04-07T09:32:30.105Z,100190.13
2019-04-07T09:35:17.744Z,100191.42
2019-04-07T09:38:11.438Z,100196.29
2019-04-07T09:41:09.045Z,100200.67
2019-04-07T09:43:53.635Z,100195.87
2019-04-07T09:46:44.742Z,100193.70
2019-04-07T09:49:29.954Z,100196.28
2019-04-07T09:52:22.112Z,100202.55
2019-04-07T09:55:08.544Z,100194.14
2019-04-07T09:57:53.969Z,100197.42
2019-04-07T10:00:45.472Z,100204.44
2019-04-07T10:03:27.990Z,100192.98
2019-04-07T10:06:10.535Z,100190.44
2019-04-07T10:08:49.913Z,100191.12
2019-04-07T10:11:29.573Z,100189.86
2019-04-07T10:14:21.771Z,100185.19
2019-04-07T10:17:16.598Z,100157.42
2019-04-07T10:19:59.954Z,100190.55
2019-04-07T10:22:38.467Z,100186.95
2019-04-07T10:25:45.599Z,100188.98
2019-04-07T10:28:39.958Z,100190.58
2019-04-07T10:31:20.905Z,100185.48
2019-04-07T10:34:13.280Z,100182.72
2019-04-07T10:37:03.451Z,100186.25
2019-04-07T10:39:56.694Z,100182.28
2019-04-07T10:42:30.723Z,100184.16
2019-04-07T10:45:16.371Z,100168.64
2019-04-07T10:48:14.048Z,100183.59
2019-04-07T10:51:02.602Z,100184.89
2019-04-07T10:53:42.059Z,100179.59
2019-04-07T10:56:29.455Z,100178.92
2019-04-07T10:59:15.048Z,100175.92
2019-04-07T11:01:55.068Z,100173.91
2019-04-07T11:04:42.689Z,100174.42
2019-04-07T11:07:18.662Z,100175.67
2019-04-07T11:10:30.560Z,100167.50
2019-04-07T11:13:06.335Z,100160.21
2019-04-07T11:15:45.370Z,100168.29
2019-04-07T11:18:25.524Z,100168.29
2019-04-07T11:21:23.765Z,100169.39
2019-04-07T11:24:24.883Z,100167.95
2019-04-07T11:27:05.809Z,100169.51
2019-04-07T11:29:53.956Z,100166.48
2019-04-07T11:32:54.902Z,100159.77
2019-04-07T11:35:35.605Z,100165.12
2019-04-07T11:38:21.290Z,100167.97
2019-04-07T11:41:04.478Z,100163.83
2019-04-07T11:43:39.174Z,100164.00
2019-04-07T11:46:17.726Z,100166.16
2019-04-07T11:49:04.850Z,100166.95
2019-04-07T11:51:40.645Z,100169.23
2019-04-07T11:54:27.728Z,100166.84
2019-04-07T11:57:06.864Z,100162.50
2019-04-07T11:59:54.340Z,100160.20
2019-04-07T12:02:41.561Z,100156.41
2019-04-07T12:05:27.481Z,100160.73
2019-04-07T12:08:10.530Z,100162.69
2019-04-07T12:10:59.126Z,100157.70
2019-04-07T12:13:44.100Z,100151.28
2019-04-07T12:16:20.143Z,100161.98
2019-04-07T12:19:00.127Z,100163.66
2019-04-07T12:21:37.492Z,100149.93
2019-04-07T12:24:13.673Z,100154.60
2019-04-07T12:27:06.764Z,100157.44
2019-04-07T12:29:44.705Z,100161.25
2019-04-07T12:32:31.395Z,100156.24
2019-04-07T12:35:09.466Z,100159.00
2019-04-07T12:37:52.171Z,100159.31
2019-04-07T12:40:39.205Z,100153.75
2019-04-07T12:43:30.813Z,100155.13
2019-04-07T12:46:19.510Z,100160.41
2019-04-07T12:49:14.430Z,100162.62
2019-04-07T12:52:01.816Z,100155.36
2019-04-07T12:54:41.414Z,100158.39
2019-04-07T12:57:37.720Z,100155.91
2019-04-07T13:00:52.400Z,100145.67
2019-04-07T13:03:31.609Z,100151.98
2019-04-07T13:06:14.653Z,100148.13
2019-04-07T13:09:19.342Z,100156.52
2019-04-07T13:11:57.125Z,100149.12
2019-04-07T13:14:40.404Z,100151.16
2019-04-07T13:17:37.770Z,100143.80
2019-04-07T13:20:26.802Z,100140.73
2019-04-07T13:23:02.831Z,100141.69
2019-04-07T13:25:39.487Z,100136.88
2019-04-07T13:28:16.291Z,100143.05
2019-04-07T13:30:54.833Z,100140.86
2019-04-07T13:33:50.072Z,100141.46
2019-04-07T13:36:36.312Z,100131.02
2019-04-07T13:39:12.880Z,100135.09
2019-04-07T13:42:14.208Z,100135.03
2019-04-07T13:44:54.797Z,100133.39
2019-04-07T13:47:42.610Z,100122.13
2019-04-07T13:50:30.047Z,100127.02
2019-04-07T13:53:08.977Z,100128.91
2019-04-07T13:55:57.223Z,100123.95
2019-04-07T13:58:49.371Z,100125.20
2019-04-07T14:01:32.284Z,100125.52
2019-04-07T14:04:16.740Z,100120.88
2019-04-07T14:06:58.890Z,100117.80
2019-04-07T14:09:47.489Z,100117.22
2019-04-07T14:12:25.934Z,100119.98
2019-04-07T14:15:04.183Z,100127.77
2019-04-07T14:17:50.356Z,100117.80
2019-04-07T14:20:55.146Z,100120.28
2019-04-07T14:23:35.317Z,100122.02
2019-04-07T14:26:36.566Z,100120.62
2019-04-07T14:29:37.143Z,100112.58
2019-04-07T14:32:27.339Z,100114.39
2019-04-07T14:35:28.084Z,100117.38
2019-04-07T14:38:16.641Z,100113.31
2019-04-07T14:40:59.937Z,100116.23
2019-04-07T14:43:43.496Z,100119.72
2019-04-07T14:46:21.161Z,100113.95
2019-04-07T14:48:57.072Z,100114.05
2019-04-07T14:51:42.655Z,100122.80
2019-04-07T14:54:31.243Z,100113.44
2019-04-07T14:57:22.617Z,100096.69
2019-04-07T15:00:14.179Z,100116.55
2019-04-07T15:02:44.453Z,100119.84
2019-04-07T15:05:27.652Z,100117.12
2019-04-07T15:08:06.507Z,100117.94
2019-04-07T15:10:40.805Z,100116.67
2019-04-07T15:13:13.422Z,100113.19
2019-04-07T15:15:43.197Z,100114.24
2019-04-07T15:18:12.818Z,100110.06
2019-04-07T15:20:43.141Z,100112.38
2019-04-07T15:23:13.321Z,100116.16
2019-04-07T15:25:46.020Z,100113.72
2019-04-07T15:28:14.328Z,100107.95
2019-04-07T15:30:47.933Z,100111.59
2019-04-07T15:33:15.771Z,100111.11
2019-04-07T15:35:50.194Z,100110.75
2019-04-07T15:38:20.419Z,100112.00
2019-04-07T15:40:49.479Z,100112.29
2019-04-07T15:43:19.175Z,100118.30
2019-04-07T15:45:48.790Z,100118.94
2019-04-07T15:48:19.099Z,100109.73
2019-04-07T15:50:48.869Z,100113.09
2019-04-07T15:53:18.782Z,100111.00
2019-04-07T15:55:56.624Z,100113.75
2019-04-07T15:58:20.499Z,100116.11
2019-04-07T16:00:50.236Z,100116.95
2019-04-07T16:03:19.877Z,100122.78
2019-04-07T16:05:51.283Z,100116.02
2019-04-07T16:08:20.772Z,100120.70
2019-04-07T16:10:52.108Z,100120.70
2019-04-07T16:13:21.746Z,100118.31
2019-04-07T16:15:53.937Z,100122.90
2019-04-07T16:18:23.238Z,100124.05
2019-04-07T16:20:53.029Z,100132.84
2019-04-07T16:23:22.574Z,100123.21
2019-04-07T16:25:52.344Z,100125.40
2019-04-07T16:28:22.851Z,100122.22
2019-04-07T16:30:52.462Z,100127.13
2019-04-07T16:33:22.142Z,100120.20
2019-04-07T16:35:55.202Z,100129.91
2019-04-07T16:38:22.989Z,100127.02
2019-04-07T16:40:52.759Z,100130.42
2019-04-07T16:43:22.380Z,100127.38
2019-04-07T16:45:53.456Z,100126.61
2019-04-07T16:48:23.262Z,100130.91
2019-04-07T16:50:55.291Z,100128.39
2019-04-07T16:53:24.832Z,100132.48
2019-04-07T16:55:55.697Z,100131.66
2019-04-07T16:58:25.484Z,100133.59
2019-04-07T17:00:55.983Z,100139.63
2019-04-07T17:03:25.810Z,100138.59
2019-04-07T17:05:58.894Z,100141.33
2019-04-07T17:08:28.613Z,100141.81
2019-04-07T17:10:57.793Z,100140.70
2019-04-07T17:13:32.631Z,100140.47
2019-04-07T17:15:59.301Z,100144.02
2019-04-07T17:18:43.141Z,100139.05
2019-04-07T17:21:15.661Z,100144.75
2019-04-07T17:23:45.701Z,100146.80
2019-04-07T17:26:15.330Z,100146.97
2019-04-07T17:28:47.427Z,100144.47
2019-04-07T17:31:16.306Z,100153.55
2019-04-07T17:33:46.988Z,100154.50
2019-04-07T17:36:19.693Z,100154.22
2019-04-07T17:39:08.223Z,100156.59
2019-04-07T17:41:38.015Z,100158.08
2019-04-07T17:44:35.512Z,100159.75
2019-04-07T17:47:23.358Z,100163.54
2019-04-07T17:50:06.183Z,100168.94
2019-04-07T17:52:57.990Z,100167.70
2019-04-07T17:55:45.789Z,100167.06
2019-04-07T17:58:36.768Z,100171.24
2019-04-07T18:01:24.793Z,100168.91
2019-04-07T18:04:14.618Z,100166.14
2019-04-07T18:07:06.245Z,100174.68
2019-04-07T18:09:44.905Z,100179.03
2019-04-07T18:12:33.589Z,100186.05
2019-04-07T18:15:13.711Z,100182.93
2019-04-07T18:18:10.135Z,100193.70
2019-04-07T18:20:51.837Z,100192.25
2019-04-07T18:23:49.475Z,100194.22
2019-04-07T18:26:40.470Z,100199.55
2019-04-07T18:29:16.825Z,100206.17
2019-04-07T18:32:07.551Z,100207.58
2019-04-07T18:34:57.029Z,100210.92
2019-04-07T18:37:48.352Z,100215.14
2019-04-07T18:40:28.488Z,100213.05
2019-04-07T18:43:18.984Z,100217.52
2019-04-07T18:46:06.120Z,100223.05
2019-04-07T18:48:53.588Z,100231.33
2019-04-07T18:51:46.762Z,100236.42
2019-04-07T18:54:26.922Z,100240.67
2019-04-07T18:57:15.237Z,100246.03
2019-04-07T18:59:59.405Z,100246.65
2019-04-07T19:02:38.031Z,100258.36
2019-04-07T19:05:14.435Z,100257.97
2019-04-07T19:08:03.660Z,100256.22
2019-04-07T19:10:53.212Z,100254.99
2019-04-07T19:13:31.306Z,100203.97
2019-04-07T19:16:19.095Z,100266.75
2019-04-07T19:18:56.244Z,100271.55
2019-04-07T19:21:37.614Z,100271.63
2019-04-07T19:24:35.615Z,100272.98
2019-04-07T19:27:28.630Z,100276.89
2019-04-07T19:30:14.446Z,100279.09
2019-04-07T19:32:58.516Z,100283.89
2019-04-07T19:35:44.553Z,100286.92
2019-04-07T19:38:31.905Z,100280.97
2019-04-07T19:41:14.387Z,100282.32
2019-04-07T19:43:59.323Z,100283.83
2019-04-07T19:46:38.586Z,100287.60
2019-04-07T19:49:32.729Z,100293.82
2019-04-07T19:52:27.071Z,100288.34
2019-04-07T19:55:04.422Z,100284.55
2019-04-07T19:57:41.289Z,100287.23
2019-04-07T20:00:52.867Z,100288.62
2019-04-07T20:03:29.762Z,100291.19
2019-04-07T20:06:22.180Z,100292.15
2019-04-07T20:09:11.134Z,100292.15
2019-04-07T20:11:54.833Z,100298.25
2019-04-07T20:14:46.554Z,100293.48
2019-04-07T20:17:23.854Z,100300.78
2019-04-07T20:20:11.276Z,100299.55
2019-04-07T20:23:06.433Z,100304.73
2019-04-07T20:25:47.905Z,100311.68
2019-04-07T20:28:43.607Z,100312.11
2019-04-07T20:31:27.807Z,100305.63
2019-04-07T20:34:19.390Z,100309.92
2019-04-07T20:36:59.868Z,100307.82
2019-04-07T20:40:05.255Z,100310.90
2019-04-07T20:42:46.394Z,100314.77
2019-04-07T20:45:23.996Z,100307.52
2019-04-07T20:48:25.716Z,100317.41
2019-04-07T20:51:20.936Z,100314.38
2019-04-07T20:54:31.533Z,100321.27
2019-04-07T20:57:07.130Z,100317.02
2019-04-07T20:59:55.283Z,100323.47
2019-04-07T21:02:36.418Z,100319.61
2019-04-07T21:05:21.961Z,100316.70
2019-04-07T21:08:08.298Z,100315.45
2019-04-07T21:10:56.930Z,100315.02
2019-04-07T21:14:04.615Z,100312.45
2019-04-07T21:16:49.860Z,100312.84
2019-04-07T21:19:54.321Z,100316.70
2019-04-07T21:22:40.111Z,100318.45
2019-04-07T21:25:24.261Z,100321.05
2019-04-07T21:28:00.115Z,100316.35
2019-04-07T21:30:37.423Z,100312.11
2019-04-07T21:33:15.751Z,100312.95
2019-04-07T21:36:06.442Z,100321.95
2019-04-07T21:38:58.474Z,100320.21
2019-04-07T21:41:36.686Z,100312.52
2019-04-07T21:44:34.577Z,100315.59
2019-04-07T21:47:33.085Z,100322.47
2019-04-07T21:50:10.079Z,100322.89
2019-04-07T21:52:47.504Z,100318.20
2019-04-07T21:55:27.457Z,100319.08
2019-04-07T21:58:07.189Z,100319.97
2019-04-07T22:01:02.824Z,100318.69
2019-04-07T22:03:39.508Z,100319.09
2019-04-07T22:06:34.154Z,100319.53
2019-04-07T22:09:36.649Z,100325.55
2019-04-07T22:12:06.437Z,100321.27
2019-04-07T22:14:39.778Z,100325.13
2019-04-07T22:17:07.394Z,100332.00
2019-04-07T22:19:36.926Z,100325.59
2019-04-07T22:22:06.705Z,100332.41
2019-04-07T22:24:39.245Z,100328.58
2019-04-07T22:27:07.570Z,100327.27
2019-04-07T22:29:37.497Z,100326.85
2019-04-07T22:32:07.465Z,100327.25
2019-04-07T22:34:37.707Z,100330.67
2019-04-07T22:37:07.675Z,100327.67
2019-04-07T22:39:37.552Z,100329.38
2019-04-07T22:42:07.208Z,100338.70
2019-04-07T22:44:37.668Z,100338.70
2019-04-07T22:47:07.361Z,100330.16
2019-04-07T22:49:37.673Z,100338.70
2019-04-07T22:52:07.604Z,100332.36
2019-04-07T22:54:37.148Z,100332.37
2019-04-07T22:57:10.328Z,100336.16
2019-04-07T22:59:37.942Z,100328.11
2019-04-07T23:02:07.511Z,100331.11
2019-04-07T23:04:37.043Z,100325.55
2019-04-07T23:07:06.596Z,100326.86
2019-04-07T23:09:36.978Z,100331.56
2019-04-07T23:12:06.581Z,100328.98
2019-04-07T23:14:36.094Z,100329.84
2019-04-07T23:17:05.771Z,100328.98
2019-04-07T23:19:35.227Z,100334.97
2019-04-07T23:22:05.338Z,100337.12
2019-04-07T23:24:35.006Z,100343.93
2019-04-07T23:27:04.619Z,100342.22
2019-04-07T23:29:34.524Z,100344.36
2019-04-07T23:32:04.174Z,100335.81
2019-04-07T23:34:33.710Z,100340.95
2019-04-07T23:37:03.233Z,100344.77
2019-04-07T23:39:33.451Z,100341.34
2019-04-07T23:42:02.981Z,100342.98
2019-04-07T23:44:33.523Z,100337.81
2019-04-07T23:47:03.073Z,100342.09
2019-04-07T23:49:32.632Z,100343.77
2019-04-07T23:52:02.733Z,100340.77
2019-04-07T23:54:33.422Z,100341.59
2019-04-07T23:57:03.807Z,100342.45
2019-04-07T23:59:33.372Z,100339.05
